Clarissa, Minnesota
Current Conditions -  °F | °C
As of 7:42 AM on Wednesday 22 Oct 2014 (Local Time) from K14Y Reporting Station
Overcast Overcast  
Wind Chill: 35°   Ceiling: 5500
Heat Index: 43°   Visibility: 10mi
Dew Point: 36°   Wind: 18mph
Humidity: 76%   Direction: 130°SE
Pressure: 30.06"   Gusts: NA
Location:  46.13°N, 94.95°W
Report Text: K14Y 221242Z AUTO 13016KT 10SM BKN055 OVC070 06/02 A3006 RMK AO2
Loading
Personal Weather Stations






























Interactive Weather Map
Tropical Storm Tracking
New forecast layout! Learn more

10-Day Weather Forecast

Advertisements
Track Severe Weather on mobile